createdAt,value
2022-11-07T00:01:47.241Z,15.07
2022-11-07T00:04:15.142Z,14.98
2022-11-07T00:06:42.590Z,15.82
2022-11-07T00:09:09.980Z,15.30
2022-11-07T00:11:37.370Z,15.18
2022-11-07T00:14:04.971Z,16.20
2022-11-07T00:16:32.841Z,16.55
2022-11-07T00:19:00.273Z,15.15
2022-11-07T00:21:27.799Z,15.25
2022-11-07T00:23:55.330Z,15.63
2022-11-07T00:26:22.886Z,15.48
2022-11-07T00:28:50.527Z,15.00
2022-11-07T00:31:18.784Z,14.90
2022-11-07T00:33:46.935Z,15.18
2022-11-07T00:36:26.564Z,14.68
2022-11-07T00:38:54.907Z,14.88
2022-11-07T00:41:23.243Z,14.82
2022-11-07T00:43:50.855Z,14.32
2022-11-07T00:46:19.609Z,14.48
2022-11-07T00:48:47.637Z,14.90
2022-11-07T00:51:24.002Z,14.60
2022-11-07T00:53:52.330Z,14.77
2022-11-07T00:56:22.217Z,15.35
2022-11-07T00:58:49.677Z,14.98
2022-11-07T01:01:22.691Z,14.07
2022-11-07T01:04:08.860Z,15.25
2022-11-07T01:06:38.870Z,14.55
2022-11-07T01:09:08.368Z,14.57
2022-11-07T01:11:38.438Z,15.45
2022-11-07T01:14:08.209Z,16.63
2022-11-07T01:16:35.942Z,14.35
2022-11-07T01:19:04.234Z,16.00
2022-11-07T01:21:31.998Z,17.35
2022-11-07T01:24:00.434Z,16.50
2022-11-07T01:26:28.165Z,15.88
2022-11-07T01:28:55.574Z,16.25
2022-11-07T01:31:23.001Z,16.48
2022-11-07T01:33:50.418Z,17.40
2022-11-07T01:36:19.379Z,17.35
2022-11-07T01:38:50.990Z,17.23
2022-11-07T01:41:22.330Z,17.08
2022-11-07T01:43:55.902Z,17.65
2022-11-07T01:46:30.700Z,17.33
2022-11-07T01:49:23.043Z,17.33
2022-11-07T01:52:05.785Z,17.65
2022-11-07T01:54:43.447Z,16.95
2022-11-07T01:57:17.708Z,17.75
2022-11-07T01:59:45.400Z,18.00
2022-11-07T02:02:12.939Z,17.27
2022-11-07T02:04:40.472Z,18.40
2022-11-07T02:07:11.533Z,18.30
2022-11-07T02:12:06.298Z,21.20
2022-11-07T02:14:33.727Z,21.73
2022-11-07T02:17:01.465Z,20.33
2022-11-07T02:19:44.287Z,20.92
2022-11-07T02:22:20.429Z,20.80
2022-11-07T02:24:52.177Z,20.25
2022-11-07T02:27:23.865Z,21.58
2022-11-07T02:29:56.837Z,21.50
2022-11-07T02:32:24.428Z,21.17
2022-11-07T02:35:00.350Z,22.08
2022-11-07T02:37:32.899Z,21.77
2022-11-07T02:40:09.675Z,21.10
2022-11-07T02:42:45.558Z,22.17
2022-11-07T02:45:21.721Z,21.35
2022-11-07T02:47:49.097Z,22.75
2022-11-07T02:50:17.084Z,21.45
2022-11-07T02:52:44.641Z,21.58
2022-11-07T02:55:13.879Z,23.45
2022-11-07T02:57:41.422Z,21.88
2022-11-07T03:00:11.931Z,21.80
2022-11-07T03:02:39.786Z,23.30
2022-11-07T03:05:07.629Z,21.90
2022-11-07T03:07:34.994Z,21.70
2022-11-07T03:10:02.380Z,21.20
2022-11-07T03:12:29.862Z,21.35
2022-11-07T03:14:57.467Z,20.52
2022-11-07T03:17:24.941Z,21.52
2022-11-07T03:19:52.377Z,22.38
2022-11-07T03:22:19.827Z,21.88
2022-11-07T03:24:47.246Z,21.02
2022-11-07T03:27:15.604Z,20.98
2022-11-07T03:29:43.129Z,20.50
2022-11-07T03:32:10.727Z,20.55
2022-11-07T03:34:38.062Z,21.25
2022-11-07T03:37:05.800Z,20.95
2022-11-07T03:39:33.280Z,20.27
2022-11-07T03:42:00.686Z,20.63
2022-11-07T03:44:28.076Z,19.75
2022-11-07T03:46:55.506Z,20.42
2022-11-07T03:49:22.939Z,21.10
2022-11-07T03:51:50.309Z,20.38
2022-11-07T03:54:17.692Z,21.50
2022-11-07T03:56:45.053Z,20.00
2022-11-07T03:59:12.353Z,20.73
2022-11-07T04:01:39.880Z,20.30
2022-11-07T04:04:08.615Z,20.38
2022-11-07T04:06:36.027Z,19.27
2022-11-07T04:09:03.637Z,19.73
2022-11-07T04:11:49.608Z,20.25
2022-11-07T04:14:35.455Z,18.33
2022-11-07T04:17:20.842Z,20.58
2022-11-07T04:19:50.510Z,19.55
2022-11-07T04:22:19.086Z,21.33
2022-11-07T04:24:46.642Z,17.63
2022-11-07T04:27:34.245Z,20.25
2022-11-07T04:30:19.314Z,21.33
2022-11-07T04:32:58.171Z,24.20
2022-11-07T04:35:28.574Z,25.73
2022-11-07T04:37:56.111Z,54.00
2022-11-07T04:40:23.548Z,27.75
2022-11-07T04:42:51.343Z,28.88
2022-11-07T04:45:18.848Z,46.10
2022-11-07T04:47:46.586Z,47.20
2022-11-07T04:50:16.890Z,33.22
2022-11-07T04:52:46.225Z,28.20
2022-11-07T04:55:20.959Z,33.85
2022-11-07T04:57:49.152Z,21.42
2022-11-07T05:00:18.204Z,110.50
2022-11-07T05:02:46.430Z,75.95
2022-11-07T05:05:14.201Z,38.25
2022-11-07T05:07:42.083Z,35.55
2022-11-07T05:10:19.446Z,25.65
2022-11-07T05:12:47.160Z,43.13
2022-11-07T05:15:15.600Z,29.25
2022-11-07T05:17:43.301Z,28.48
2022-11-07T05:20:33.250Z,34.60
2022-11-07T05:23:15.321Z,28.25
2022-11-07T05:25:49.141Z,25.27
2022-11-07T05:28:34.001Z,25.38
2022-11-07T05:31:05.050Z,35.42
2022-11-07T05:33:32.462Z,33.63
2022-11-07T05:36:13.267Z,31.15
2022-11-07T05:38:42.712Z,29.85
2022-11-07T05:41:10.753Z,28.60
2022-11-07T05:43:39.088Z,32.00
2022-11-07T05:46:07.255Z,29.08
2022-11-07T05:48:35.515Z,23.90
2022-11-07T05:51:03.649Z,27.15
2022-11-07T05:53:31.282Z,23.65
2022-11-07T05:55:58.848Z,27.40
2022-11-07T05:58:26.221Z,25.90
2022-11-07T06:00:53.666Z,26.88
2022-11-07T06:03:21.367Z,24.80
2022-11-07T06:05:49.168Z,23.65
2022-11-07T06:08:16.661Z,23.55
2022-11-07T06:10:44.274Z,22.27
2022-11-07T06:13:14.713Z,22.98
2022-11-07T06:15:43.628Z,21.38
2022-11-07T06:18:16.964Z,19.77
2022-11-07T06:20:44.594Z,19.75
2022-11-07T06:23:12.579Z,19.20
2022-11-07T06:25:40.249Z,20.10
2022-11-07T06:28:09.974Z,20.95
2022-11-07T06:30:37.767Z,19.27
2022-11-07T06:33:17.511Z,17.35
2022-11-07T06:35:46.309Z,17.92
2022-11-07T06:41:12.777Z,17.95
2022-11-07T06:43:40.288Z,20.13
2022-11-07T06:46:12.402Z,19.33
2022-11-07T06:48:40.130Z,19.42
2022-11-07T06:51:09.968Z,16.40
2022-11-07T06:53:38.833Z,17.63
2022-11-07T06:56:08.280Z,19.13
2022-11-07T06:58:36.387Z,18.05
2022-11-07T07:01:05.931Z,18.20
2022-11-07T07:03:33.373Z,20.55
2022-11-07T07:06:02.834Z,16.95
2022-11-07T07:08:30.900Z,15.52
2022-11-07T07:11:03.915Z,17.05
2022-11-07T07:13:31.426Z,17.35
2022-11-07T07:15:59.262Z,15.93
2022-11-07T07:18:27.384Z,16.85
2022-11-07T07:21:15.362Z,15.23
2022-11-07T07:23:42.906Z,16.52
2022-11-07T07:26:15.151Z,16.48
2022-11-07T07:28:43.340Z,16.30
2022-11-07T07:31:18.400Z,17.40
2022-11-07T07:33:47.018Z,15.23
2022-11-07T07:36:20.237Z,17.42
2022-11-07T07:38:49.705Z,15.70
2022-11-07T07:41:17.893Z,16.35
2022-11-07T07:43:45.409Z,17.65
2022-11-07T07:46:20.194Z,14.65
2022-11-07T07:48:47.516Z,17.95
2022-11-07T07:51:15.073Z,14.43
2022-11-07T07:53:42.448Z,16.95
2022-11-07T07:56:10.030Z,16.20
2022-11-07T07:58:37.453Z,16.33
2022-11-07T08:01:10.727Z,15.30
2022-11-07T08:03:59.609Z,14.25
2022-11-07T08:06:26.187Z,16.95
2022-11-07T08:08:53.669Z,16.38
2022-11-07T08:11:21.063Z,13.68
2022-11-07T08:13:48.418Z,15.65
2022-11-07T08:16:15.949Z,16.52
2022-11-07T08:18:43.366Z,14.63
2022-11-07T08:21:10.989Z,16.88
2022-11-07T08:23:38.487Z,17.75
2022-11-07T08:26:06.345Z,15.65
2022-11-07T08:28:35.621Z,15.18
2022-11-07T08:31:04.682Z,15.95
2022-11-07T08:33:32.778Z,14.98
2022-11-07T08:36:02.221Z,18.25
2022-11-07T08:38:31.144Z,19.45
2022-11-07T08:40:58.996Z,18.33
2022-11-07T08:43:26.746Z,12.43
2022-11-07T08:45:55.575Z,14.93
2022-11-07T08:48:23.971Z,15.88
2022-11-07T08:50:57.003Z,14.48
2022-11-07T08:53:26.887Z,13.05
2022-11-07T08:56:02.223Z,14.93
2022-11-07T08:58:30.337Z,12.70
2022-11-07T09:00:58.316Z,14.60
2022-11-07T09:06:13.674Z,13.10
2022-11-07T09:08:41.187Z,13.57
2022-11-07T09:11:08.812Z,13.82
2022-11-07T09:13:37.005Z,13.05
2022-11-07T09:16:05.371Z,14.13
2022-11-07T09:18:33.449Z,12.70
2022-11-07T09:21:00.879Z,13.70
2022-11-07T09:23:28.450Z,11.70
2022-11-07T09:25:58.445Z,11.90
2022-11-07T09:28:25.779Z,11.68
2022-11-07T09:30:54.704Z,13.32
2022-11-07T09:33:23.105Z,13.80
2022-11-07T09:35:50.834Z,14.07
2022-11-07T09:38:18.464Z,10.45
2022-11-07T09:41:22.999Z,12.13
2022-11-07T09:44:04.619Z,12.18
2022-11-07T09:46:50.348Z,13.50
2022-11-07T09:49:20.841Z,12.15
2022-11-07T09:51:55.633Z,11.07
2022-11-07T09:54:28.031Z,12.85
2022-11-07T09:56:58.084Z,12.85
2022-11-07T09:59:40.775Z,14.95
2022-11-07T10:02:24.799Z,17.40
2022-11-07T10:04:59.618Z,10.23
2022-11-07T10:07:42.006Z,14.60
2022-11-07T10:10:27.433Z,12.68
2022-11-07T10:13:16.447Z,9.95
2022-11-07T10:15:58.222Z,9.18
2022-11-07T10:18:49.782Z,9.27
2022-11-07T10:21:40.776Z,12.43
2022-11-07T10:24:23.340Z,11.77
2022-11-07T10:26:50.757Z,9.55
2022-11-07T10:29:20.755Z,9.85
2022-11-07T10:32:03.233Z,10.20
2022-11-07T10:34:41.787Z,9.10
2022-11-07T10:37:09.572Z,10.07
2022-11-07T10:39:36.963Z,10.55
2022-11-07T10:42:15.706Z,10.15
2022-11-07T10:44:43.870Z,9.52
2022-11-07T10:47:20.648Z,10.60
2022-11-07T10:50:03.003Z,9.77
2022-11-07T10:52:30.363Z,11.15
2022-11-07T10:55:16.042Z,10.40
2022-11-07T10:57:44.778Z,9.10
2022-11-07T11:00:27.516Z,9.07
2022-11-07T11:02:58.918Z,9.18
2022-11-07T11:05:43.042Z,9.63
2022-11-07T11:08:22.544Z,10.52
2022-11-07T11:10:50.918Z,10.73
2022-11-07T11:13:31.726Z,9.63
2022-11-07T11:16:11.569Z,12.52
2022-11-07T11:18:39.787Z,20.85
2022-11-07T11:21:07.234Z,16.73
2022-11-07T11:23:42.229Z,18.38
2022-11-07T11:26:21.841Z,16.13
2022-11-07T11:28:55.877Z,12.52
2022-11-07T11:31:32.732Z,13.73
2022-11-07T11:34:13.862Z,11.90
2022-11-07T11:36:50.726Z,13.55
2022-11-07T11:39:47.325Z,11.00
2022-11-07T11:42:32.371Z,12.50
2022-11-07T11:45:09.794Z,8.23
2022-11-07T11:47:45.831Z,9.73
2022-11-07T11:50:18.462Z,11.77
2022-11-07T11:52:46.712Z,12.77
2022-11-07T11:55:16.464Z,11.60
2022-11-07T11:58:10.502Z,9.90
2022-11-07T12:01:00.294Z,11.00
2022-11-07T12:03:49.526Z,13.27
2022-11-07T12:06:24.319Z,11.70
2022-11-07T12:09:18.268Z,12.95
2022-11-07T12:12:13.493Z,11.57
2022-11-07T12:15:01.888Z,13.07
2022-11-07T12:17:45.495Z,12.15
2022-11-07T12:20:12.923Z,11.65
2022-11-07T12:22:53.262Z,12.52
2022-11-07T12:25:38.346Z,14.48
2022-11-07T12:28:31.320Z,13.60
2022-11-07T12:31:17.357Z,14.80
2022-11-07T12:34:08.646Z,13.18
2022-11-07T12:39:40.413Z,14.50
2022-11-07T12:42:18.904Z,15.70
2022-11-07T12:45:02.404Z,16.65
2022-11-07T12:47:55.685Z,16.33
2022-11-07T12:50:38.831Z,13.93
2022-11-07T12:53:18.112Z,14.15
2022-11-07T12:55:50.632Z,15.93
2022-11-07T12:58:23.712Z,14.98
2022-11-07T13:00:51.956Z,14.65
2022-11-07T13:03:22.042Z,13.68
2022-11-07T13:06:05.888Z,13.45
2022-11-07T13:08:45.256Z,13.68
2022-11-07T13:11:32.466Z,12.88
2022-11-07T13:14:37.393Z,15.27
2022-11-07T13:17:12.322Z,13.15
2022-11-07T13:20:06.947Z,13.70
2022-11-07T13:22:39.886Z,14.35
2022-11-07T13:25:13.445Z,12.75
2022-11-07T13:27:43.630Z,14.63
2022-11-07T13:30:13.652Z,16.40
2022-11-07T13:32:42.904Z,17.48
2022-11-07T13:35:28.405Z,18.55
2022-11-07T13:38:07.274Z,19.67
2022-11-07T13:40:42.204Z,24.02
2022-11-07T13:43:12.877Z,23.00
2022-11-07T13:45:45.759Z,18.90
2022-11-07T13:48:38.541Z,16.08
2022-11-07T13:51:14.312Z,14.65
2022-11-07T13:54:04.908Z,14.32
2022-11-07T13:56:56.922Z,17.23
2022-11-07T13:59:43.530Z,22.08
2022-11-07T14:02:20.006Z,24.63
2022-11-07T14:05:15.802Z,13.65
2022-11-07T14:07:51.113Z,15.13
2022-11-07T14:10:39.040Z,16.20
2022-11-07T14:13:13.058Z,14.50
2022-11-07T14:15:54.077Z,15.35
2022-11-07T14:18:23.237Z,15.93
2022-11-07T14:20:53.922Z,16.40
2022-11-07T14:23:24.249Z,17.45
2022-11-07T14:25:57.253Z,13.95
2022-11-07T14:28:29.262Z,16.98
2022-11-07T14:30:56.627Z,18.27
2022-11-07T14:33:23.998Z,16.80
2022-11-07T14:35:51.956Z,17.95
2022-11-07T14:38:25.482Z,18.23
2022-11-07T14:40:58.224Z,15.85
2022-11-07T14:43:26.843Z,16.95
2022-11-07T14:46:18.166Z,16.08
2022-11-07T14:51:17.847Z,15.30
2022-11-07T14:53:54.386Z,14.27
2022-11-07T14:56:26.975Z,15.73
2022-11-07T14:58:54.777Z,15.57
2022-11-07T15:01:34.184Z,16.45
2022-11-07T15:04:45.366Z,17.88
2022-11-07T15:07:25.911Z,16.58
2022-11-07T15:09:55.995Z,14.60
2022-11-07T15:12:26.695Z,16.75
2022-11-07T15:15:21.303Z,15.93
2022-11-07T15:17:51.569Z,17.83
2022-11-07T15:20:30.991Z,18.63
2022-11-07T15:23:03.958Z,17.10
2022-11-07T15:25:35.911Z,20.45
2022-11-07T15:28:19.138Z,16.92
2022-11-07T15:30:47.488Z,17.60
2022-11-07T15:33:19.123Z,18.02
2022-11-07T15:35:48.757Z,22.35
2022-11-07T15:38:29.255Z,20.52
2022-11-07T15:40:56.727Z,18.85
2022-11-07T15:43:24.201Z,18.25
2022-11-07T15:45:53.427Z,20.50
2022-11-07T15:48:23.824Z,17.70
2022-11-07T15:51:15.001Z,18.27
2022-11-07T15:53:45.712Z,16.50
2022-11-07T15:56:28.059Z,18.58
2022-11-07T15:59:01.411Z,18.75
2022-11-07T16:04:44.764Z,26.38
2022-11-07T16:07:19.296Z,22.88
2022-11-07T16:09:48.918Z,25.38
2022-11-07T16:12:18.721Z,25.15
2022-11-07T16:14:46.223Z,21.38
2022-11-07T16:17:16.869Z,15.25
2022-11-07T16:19:44.595Z,19.30
2022-11-07T16:22:15.904Z,19.92
2022-11-07T16:24:43.509Z,19.70
2022-11-07T16:27:16.480Z,19.80
2022-11-07T16:29:44.422Z,24.00
2022-11-07T16:32:17.569Z,24.55
2022-11-07T16:34:45.751Z,20.55
2022-11-07T16:37:13.079Z,27.42
2022-11-07T16:39:40.432Z,34.47
2022-11-07T16:42:15.208Z,25.23
2022-11-07T16:44:42.725Z,20.23
2022-11-07T16:47:15.034Z,21.45
2022-11-07T16:49:42.944Z,20.60
2022-11-07T16:52:17.381Z,20.30
2022-11-07T16:54:45.199Z,22.70
2022-11-07T16:57:14.351Z,20.85
2022-11-07T16:59:43.332Z,20.02
2022-11-07T17:02:21.614Z,26.45
2022-11-07T17:04:50.862Z,22.20
2022-11-07T17:07:20.414Z,20.27
2022-11-07T17:09:48.035Z,22.58
2022-11-07T17:12:18.737Z,22.30
2022-11-07T17:14:46.159Z,17.48
2022-11-07T17:17:14.429Z,20.05
2022-11-07T17:19:42.028Z,24.63
2022-11-07T17:22:11.084Z,18.90
2022-11-07T17:24:39.332Z,20.95
2022-11-07T17:27:21.523Z,22.58
2022-11-07T17:29:49.881Z,22.88
2022-11-07T17:32:17.629Z,22.33
2022-11-07T17:34:45.275Z,21.52
2022-11-07T17:37:20.026Z,21.83
2022-11-07T17:39:48.413Z,20.15
2022-11-07T17:42:15.995Z,23.13
2022-11-07T17:44:43.374Z,23.85
2022-11-07T17:47:29.321Z,29.23
2022-11-07T17:49:57.918Z,26.92
2022-11-07T17:52:25.442Z,30.45
2022-11-07T17:54:53.469Z,25.80
2022-11-07T17:57:20.984Z,24.65
2022-11-07T17:59:49.309Z,23.92
2022-11-07T18:02:19.075Z,23.38
2022-11-07T18:04:47.284Z,20.00
2022-11-07T18:07:14.666Z,19.38
2022-11-07T18:09:42.589Z,18.38
2022-11-07T18:12:11.075Z,19.30
2022-11-07T18:14:38.870Z,22.95
2022-11-07T18:17:06.442Z,24.33
2022-11-07T18:19:33.981Z,25.08
2022-11-07T18:22:01.427Z,22.17
2022-11-07T18:24:28.847Z,23.48
2022-11-07T18:26:56.312Z,22.17
2022-11-07T18:29:23.796Z,20.60
2022-11-07T18:31:51.943Z,21.80
2022-11-07T18:34:20.578Z,20.35
2022-11-07T18:36:48.043Z,19.73
2022-11-07T18:39:18.381Z,20.85
2022-11-07T18:41:45.985Z,21.42
2022-11-07T18:44:13.715Z,19.92
2022-11-07T18:46:41.751Z,19.70
2022-11-07T18:49:09.210Z,20.63
2022-11-07T18:51:36.599Z,25.10
2022-11-07T18:54:05.325Z,20.45
2022-11-07T18:56:33.239Z,18.98
2022-11-07T18:59:00.711Z,21.30
2022-11-07T19:01:31.109Z,19.50
2022-11-07T19:04:01.091Z,21.35
2022-11-07T19:06:30.319Z,23.40
2022-11-07T19:08:58.206Z,21.67
2022-11-07T19:11:29.543Z,20.85
2022-11-07T19:14:00.634Z,20.25
2022-11-07T19:16:28.865Z,21.05
2022-11-07T19:18:56.326Z,21.88
2022-11-07T19:21:23.688Z,20.02
2022-11-07T19:23:52.171Z,21.80
2022-11-07T19:26:19.960Z,22.70
2022-11-07T19:28:48.151Z,21.00
2022-11-07T19:31:15.689Z,23.83
2022-11-07T19:33:44.003Z,25.80
2022-11-07T19:36:21.499Z,25.08
2022-11-07T19:38:49.728Z,24.92
2022-11-07T19:41:18.559Z,25.13
2022-11-07T19:43:50.071Z,23.63
2022-11-07T19:46:20.790Z,21.13
2022-11-07T19:48:49.222Z,19.55
2022-11-07T19:51:22.018Z,20.35
2022-11-07T19:53:58.578Z,20.42
2022-11-07T19:56:28.451Z,20.65
2022-11-07T19:58:55.864Z,21.90
2022-11-07T20:01:31.656Z,21.20
2022-11-07T20:04:00.252Z,21.40
2022-11-07T20:06:38.509Z,20.92
2022-11-07T20:09:08.248Z,22.10
2022-11-07T20:11:36.357Z,21.98
2022-11-07T20:14:04.333Z,23.85
2022-11-07T20:16:33.342Z,24.00
2022-11-07T20:19:01.656Z,24.52
2022-11-07T20:21:30.421Z,23.85
2022-11-07T20:23:59.632Z,25.77
2022-11-07T20:26:29.753Z,25.15
2022-11-07T20:28:57.236Z,21.58
2022-11-07T20:31:31.027Z,22.70
2022-11-07T20:34:00.413Z,23.48
2022-11-07T20:36:28.634Z,23.30
2022-11-07T20:38:56.341Z,24.17
2022-11-07T20:41:24.501Z,26.73
2022-11-07T20:43:55.931Z,29.52
2022-11-07T20:46:23.541Z,26.05
2022-11-07T20:48:51.009Z,26.67
2022-11-07T20:51:21.466Z,23.90
2022-11-07T20:53:50.646Z,22.10
2022-11-07T20:56:20.152Z,20.50
2022-11-07T20:58:48.583Z,21.15
2022-11-07T21:01:19.069Z,21.30
2022-11-07T21:03:46.572Z,21.80
2022-11-07T21:06:13.994Z,21.60
2022-11-07T21:08:46.349Z,20.92
2022-11-07T21:11:15.911Z,20.80
2022-11-07T21:13:51.140Z,20.52
2022-11-07T21:16:22.487Z,21.48
2022-11-07T21:18:51.576Z,21.08
2022-11-07T21:21:22.218Z,20.98
2022-11-07T21:23:51.307Z,20.85
2022-11-07T21:26:28.632Z,21.38
2022-11-07T21:28:56.525Z,20.50
2022-11-07T21:31:27.330Z,21.75
2022-11-07T21:33:55.941Z,21.65
2022-11-07T21:36:28.840Z,21.50
2022-11-07T21:38:57.513Z,21.15
2022-11-07T21:41:25.433Z,21.33
2022-11-07T21:43:52.879Z,22.02
2022-11-07T21:46:31.821Z,22.15
2022-11-07T21:48:59.411Z,21.98
2022-11-07T21:51:29.645Z,22.25
2022-11-07T21:53:58.561Z,23.57
2022-11-07T21:56:33.060Z,23.00
2022-11-07T21:59:03.313Z,22.63
2022-11-07T22:01:37.813Z,23.40
2022-11-07T22:04:09.518Z,23.42
2022-11-07T22:06:40.469Z,24.42
2022-11-07T22:09:09.339Z,25.40
2022-11-07T22:11:37.188Z,25.88
2022-11-07T22:14:05.017Z,25.98
2022-11-07T22:16:32.997Z,27.00
2022-11-07T22:19:00.729Z,27.05
2022-11-07T22:21:28.403Z,26.60
2022-11-07T22:23:56.473Z,27.15
2022-11-07T22:26:26.240Z,27.58
2022-11-07T22:28:54.531Z,26.50
2022-11-07T22:31:24.377Z,26.15
2022-11-07T22:33:53.409Z,26.55
2022-11-07T22:36:21.932Z,27.23
2022-11-07T22:38:50.231Z,26.95
2022-11-07T22:41:23.208Z,26.63
2022-11-07T22:43:51.305Z,28.63
2022-11-07T22:46:22.190Z,25.38
2022-11-07T22:48:50.340Z,25.73
2022-11-07T22:51:23.828Z,26.63
2022-11-07T22:53:58.479Z,25.38
2022-11-07T22:56:26.488Z,24.77
2022-11-07T22:58:54.040Z,25.20
2022-11-07T23:01:27.294Z,29.77
2022-11-07T23:03:56.002Z,27.75
2022-11-07T23:06:24.934Z,26.23
2022-11-07T23:08:53.374Z,26.55
2022-11-07T23:14:13.469Z,26.40
2022-11-07T23:16:44.213Z,25.60
2022-11-07T23:19:13.554Z,27.25
2022-11-07T23:21:41.229Z,26.63
2022-11-07T23:24:09.451Z,26.67
2022-11-07T23:26:37.080Z,24.63
2022-11-07T23:29:10.870Z,26.15
2022-11-07T23:31:44.284Z,26.23
2022-11-07T23:34:12.172Z,25.92
2022-11-07T23:36:44.637Z,30.05
2022-11-07T23:39:18.460Z,27.05
2022-11-07T23:41:46.435Z,29.27
2022-11-07T23:44:15.139Z,25.48
2022-11-07T23:47:01.634Z,31.58
2022-11-07T23:49:47.492Z,28.45
2022-11-07T23:52:15.632Z,24.63
2022-11-07T23:55:01.542Z,26.10
2022-11-07T23:57:29.096Z,26.20
